Airfield :
LOGIN :

Register | Disclaimer

   EN    FR    IT 

 










Legend :    VFR   Marginal VFR   IFR   Intensive IFR   Very Intensive IFR
Visi :
Ceiling :
>= 8 km
>= 3000ft
5 to 8 km
1000 to 3000 ft
1500m to 5 km
500 to 1000 ft
800 to 1500m
200 to 500 ft
< 800m
< 200 ft
Symbols :   Thunderstorms  Fog  Heavy snow  Heavy precipitations  Wind > 20 kt
SIGMETs :     Misc.  Thunderstorms  Icing  Turbulence  Mountain Waves  Volcanic Ashes







- Airport Elevation : 1504 ft
- IATA code : PNA


LEPP - Noain Pamplona

CURRENT METAR :
  • 260000Z AUTO 36011KT 9999 FEW037/// 07/01 Q1024

EXPIRED METARs :
  • 252330Z AUTO 36011KT 9999 SCT038/// 08/01 Q1025
  • 252300Z 01013G23KT 9999 FEW025 SCT038 08/02 Q1024
  • 252230Z 36014G24KT 330V030 9999 FEW025 SCT038 08/02 Q1024
  • 252200Z 36013KT 9999 SCT025 BKN038 08/03 Q1024
  • 252130Z 35013KT 9999 SCT025 SCT035 08/03 Q1025

TAF TAF LEPP
Valid from the 25 at 21:00 until the 26 at 21:00 UTC


252000Z 2521/2621 36012KT 9999 SCT030 TX15/2613Z TN01/2606Z
PROB30
TEMPO 2521/2612 34015G25KT
TEMPO 2612/2618 01018G30KT
No reported NOTAMs for that airfield.
1 SIGMET reported for the Madrid FIR (LECM) :
 
Severe turbulence
LECM SIGMET 1 VALID 252015/260000 LEVA
LECM MADRID FIR/UIR SEV TURB FCST WI N3936 W00730 - N3955 W00103 - N3903 W00119 - N3849 W00702 - N3936 W00730 FL220/300 STNR WKN=



MET'MAP, your aeronautical weather chart ! - Copyright ORBIFLY December 2007 - Disclaimer

ORBIFLY MET'MAP TEAM :

Programming & Development : Alexandra Zaïnal
Concept & Development : Baudouin d'Aumeries
Co-Development & Prog : Marc-Olivier Méhu
Technical & hardware support : Manuel Goepfert

Contact : metmap@orbifly.com




SOURCES & CREDITS :

   NOAA